Time;durP1;ratioP1;P1;durP2;ratioP2;P2;SDS_P1;SDS_P2;PMS_P1;PMS_P2;Temp;Humidity;BMP_temperature;BMP_pressure;BME280_temperature;BME280_humidity;BME280_pressure;Samples;Min_cycle;Max_cycle;Signal;HPM_P1;HPM_P2
2022/05/12 00:00:35;;;;;;;9.35;3.70;;;;;;;14.21;42.38;145748.08;1763560;81;21033;-56
2022/05/12 00:03:04;;;;;;;8.13;4.08;;;;;;;14.21;42.43;145748.08;1763661;80;21038;-55
2022/05/12 00:05:31;;;;;;;9.28;4.10;;;;;;;14.20;42.61;145744.33;1763627;81;20968;-55
2022/05/12 00:07:58;;;;;;;9.25;3.77;;;;;;;14.19;42.75;145741.78;1763264;80;21050;-56
2022/05/12 00:10:26;;;;;;;11.78;3.90;;;;;;;14.17;42.85;145738.05;1763497;80;21007;-56
2022/05/12 00:12:57;;;;;;;7.92;3.15;;;;;;;14.16;42.93;145734.25;1763270;80;21086;-55
2022/05/12 00:15:28;;;;;;;8.93;3.50;;;;;;;14.14;42.90;145730.47;1763529;81;21035;-56
2022/05/12 00:17:55;;;;;;;7.53;3.25;;;;;;;14.13;43.02;145726.72;1763722;81;21086;-56
2022/05/12 00:20:24;;;;;;;18.15;5.87;;;;;;;14.11;43.08;145724.17;1763531;81;21038;-56
2022/05/12 00:22:51;;;;;;;9.03;3.65;;;;;;;14.09;43.15;145719.19;1763261;80;21019;-56
2022/05/12 00:25:22;;;;;;;12.13;3.37;;;;;;;14.09;43.12;145717.88;1763340;80;21109;-55
2022/05/12 00:27:48;;;;;;;6.45;3.40;;;;;;;14.08;43.23;145716.63;1763305;80;21023;-56
2022/05/12 00:30:16;;;;;;;8.10;3.35;;;;;;;14.07;43.30;145714.14;1763259;80;21066;-55
2022/05/12 00:32:46;;;;;;;8.70;4.20;;;;;;;14.05;43.38;145707.84;1763324;80;21050;-55
2022/05/12 00:35:15;;;;;;;11.22;4.03;;;;;;;14.03;43.41;145704.06;1763605;80;21062;-56
2022/05/12 00:37:43;;;;;;;8.13;3.95;;;;;;;14.01;43.46;145699.02;1763488;80;21520;-56
2022/05/12 00:40:11;;;;;;;11.97;4.12;;;;;;;14.00;43.46;145695.28;1763716;80;21043;-56
2022/05/12 00:42:53;;;;;;;12.10;3.65;;;;;;;13.98;43.50;145691.48;1763899;81;21074;-55
2022/05/12 00:45:20;;;;;;;;;;;;;;;13.97;43.56;145688.98;1766638;80;21500;-55
2022/05/12 00:47:47;;;;;;;10.32;3.62;;;;;;;13.96;43.70;145686.44;1763790;80;20106;-56
2022/05/12 00:50:15;;;;;;;8.45;3.58;;;;;;;13.94;43.70;145681.41;1764146;80;21064;-56
2022/05/12 00:52:43;;;;;;;6.95;3.27;;;;;;;13.93;43.78;145678.91;1764009;80;21548;-57
2022/05/12 00:55:17;;;;;;;7.83;3.25;;;;;;;13.93;43.74;145678.91;1764056;80;21015;-56
2022/05/12 00:57:48;;;;;;;7.00;3.72;;;;;;;13.93;43.76;145677.66;1763817;80;21107;-56
2022/05/12 01:00:19;;;;;;;8.48;3.27;;;;;;;13.94;43.79;145681.41;1764068;80;21011;-56
2022/05/12 01:02:49;;;;;;;9.80;3.10;;;;;;;13.94;43.79;145680.16;1764011;80;21026;-56
2022/05/12 01:05:18;;;;;;;10.43;4.42;;;;;;;13.95;43.85;145683.94;1764037;80;21031;-56
2022/05/12 01:07:44;;;;;;;9.83;3.47;;;;;;;13.95;43.91;145683.94;1763992;80;21047;-56
2022/05/12 01:10:12;;;;;;;7.60;2.95;;;;;;;13.95;43.91;145683.94;1764005;81;21079;-55
2022/05/12 01:12:44;;;;;;;8.35;3.25;;;;;;;13.96;43.95;145686.44;1764169;80;21007;-55
2022/05/12 01:15:12;;;;;;;7.75;3.20;;;;;;;13.95;44.01;145683.94;1740436;81;21023;-56
2022/05/12 01:17:38;;;;;;;12.90;3.45;;;;;;;13.94;44.07;145681.41;1764031;80;21058;-56
2022/05/12 01:20:07;;;;;;;11.33;3.55;;;;;;;13.92;44.11;145676.41;1763764;80;21054;-58
2022/05/12 01:22:53;;;;;;;7.30;3.20;;;;;;;13.91;44.18;145673.88;1764014;81;21070;-56
2022/05/12 01:25:25;;;;;;;8.03;3.12;;;;;;;13.92;44.21;145675.13;1742834;81;21566;-57
2022/05/12 01:27:52;;;;;;;9.25;4.47;;;;;;;13.89;44.20;145670.12;1740695;81;21532;-57
2022/05/12 01:30:22;;;;;;;8.90;3.33;;;;;;;13.89;44.17;145668.83;1763877;80;21062;-56
2022/05/12 01:32:50;;;;;;;8.98;3.10;;;;;;;13.87;44.22;145663.84;1763996;80;21065;-57
2022/05/12 01:35:21;;;;;;;7.78;3.17;;;;;;;13.87;44.26;145663.84;1763781;80;21003;-57
2022/05/12 01:37:48;;;;;;;7.58;3.42;;;;;;;13.85;44.37;145658.80;1764030;81;21483;-55
2022/05/12 01:40:21;;;;;;;12.80;3.80;;;;;;;13.83;44.45;145655.00;1737544;81;21070;-57
2022/05/12 01:42:49;;;;;;;8.70;3.08;;;;;;;13.83;44.48;145653.77;1732141;82;21527;-56
2022/05/12 01:45:17;;;;;;;7.35;3.02;;;;;;;13.81;44.56;145648.72;1732265;82;21018;-55
2022/05/12 01:47:45;;;;;;;5.47;3.15;;;;;;;13.80;44.53;145646.22;1732012;82;21003;-55
2022/05/12 01:50:14;;;;;;;12.18;3.50;;;;;;;13.78;44.59;145641.19;1732032;83;21050;-55
2022/05/12 01:52:43;;;;;;;10.55;3.60;;;;;;;13.77;44.63;145638.69;1732219;82;21480;-56
2022/05/12 01:55:13;;;;;;;7.97;3.25;;;;;;;13.76;44.65;145636.14;1732354;82;21026;-56
2022/05/12 01:57:43;;;;;;;11.12;3.52;;;;;;;13.75;44.62;145633.66;1725948;82;21017;-55
2022/05/12 02:00:17;;;;;;;10.50;3.10;;;;;;;13.74;44.74;145631.11;1709111;83;21141;-56
2022/05/12 02:02:45;;;;;;;7.40;3.62;;;;;;;13.73;44.81;145629.86;1729377;83;21042;-57
2022/05/12 02:05:12;;;;;;;9.00;3.40;;;;;;;13.71;44.85;145623.58;1703585;83;21055;-56
2022/05/12 02:07:45;;;;;;;9.08;3.45;;;;;;;13.71;44.94;145623.58;1729257;82;21073;-57
2022/05/12 02:10:20;;;;;;;10.45;3.55;;;;;;;13.70;44.95;145621.08;1703749;83;20995;-56
2022/05/12 02:12:47;;;;;;;8.85;3.25;;;;;;;13.70;44.95;145621.08;1729449;82;21006;-56
2022/05/12 02:15:17;;;;;;;9.10;3.67;;;;;;;13.71;44.94;145623.58;1703511;83;21059;-55
2022/05/12 02:17:44;;;;;;;6.55;3.00;;;;;;;13.70;44.84;145622.33;1729551;82;21011;-55
2022/05/12 02:20:13;;;;;;;12.07;3.92;;;;;;;13.71;44.87;145623.58;1703482;83;21019;-56
2022/05/12 02:22:41;;;;;;;7.28;3.25;;;;;;;13.72;44.80;145627.36;1729500;82;21504;-56
2022/05/12 02:25:09;;;;;;;6.53;2.83;;;;;;;13.72;44.79;145627.36;1703697;83;21059;-56
2022/05/12 02:27:36;;;;;;;8.28;5.03;;;;;;;13.73;44.82;145629.86;1729512;82;21027;-55
2022/05/12 02:30:05;;;;;;;8.98;3.47;;;;;;;13.74;44.83;145631.11;1703482;83;21055;-55
2022/05/12 02:32:31;;;;;;;6.83;3.35;;;;;;;13.75;44.68;145633.66;1729737;82;21139;-56
2022/05/12 02:34:58;;;;;;;7.17;2.90;;;;;;;13.76;44.65;145636.14;1703595;83;21624;-56
2022/05/12 02:37:25;;;;;;;7.75;3.25;;;;;;;13.77;44.66;145639.94;1729454;82;21034;-56
2022/05/12 02:39:53;;;;;;;9.53;3.50;;;;;;;13.77;44.57;145639.94;1702460;83;21059;-56
2022/05/12 02:42:19;;;;;;;11.95;3.02;;;;;;;13.78;44.60;145642.44;1729770;82;21065;-56
2022/05/12 02:44:46;;;;;;;6.80;2.67;;;;;;;13.80;44.47;145646.22;1701726;83;21110;-55
2022/05/12 02:47:12;;;;;;;6.03;2.67;;;;;;;13.81;44.49;145649.97;1729774;82;21050;-56
2022/05/12 02:49:39;;;;;;;6.87;2.90;;;;;;;13.82;44.46;145652.52;1701740;83;21091;-55
2022/05/12 02:52:08;;;;;;;7.08;3.22;;;;;;;13.84;44.35;145656.25;1729789;83;21086;-56
2022/05/12 02:54:36;;;;;;;6.47;3.12;;;;;;;13.86;44.32;145661.30;1701991;83;21031;-56
2022/05/12 02:57:04;;;;;;;8.20;3.05;;;;;;;13.87;44.30;145663.84;1729910;83;21508;-56
2022/05/12 02:59:31;;;;;;;8.78;3.30;;;;;;;13.89;44.36;145668.83;1701966;83;21043;-56
2022/05/12 03:01:59;;;;;;;7.90;2.92;;;;;;;13.90;44.34;145671.37;1729976;82;21535;-56
2022/05/12 03:04:26;;;;;;;11.28;2.72;;;;;;;13.90;44.30;145671.37;1701955;83;21027;-56
2022/05/12 03:06:53;;;;;;;6.70;3.22;;;;;;;13.92;44.28;145676.41;1729805;83;21026;-56
2022/05/12 03:09:22;;;;;;;8.13;3.25;;;;;;;13.95;44.21;145683.94;1701670;83;21556;-55
2022/05/12 03:11:48;;;;;;;6.12;2.70;;;;;;;13.97;44.15;145687.69;1729733;82;21031;-56
2022/05/12 03:14:15;;;;;;;7.40;2.80;;;;;;;13.99;44.06;145694.03;1701715;84;21106;-55
2022/05/12 03:16:42;;;;;;;7.10;2.58;;;;;;;14.02;43.97;145700.31;1729845;82;21074;-56
2022/05/12 03:19:10;;;;;;;7.78;3.20;;;;;;;14.05;43.87;145709.09;1701885;84;21156;-56
2022/05/12 03:21:37;;;;;;;12.85;3.08;;;;;;;14.07;43.92;145714.14;1729758;82;21036;-55
2022/05/12 03:24:04;;;;;;;9.03;3.10;;;;;;;14.10;43.73;145721.67;1701912;83;21091;-56
2022/05/12 03:26:32;;;;;;;5.95;2.92;;;;;;;14.15;43.56;145731.75;1729738;82;21035;-56
2022/05/12 03:28:59;;;;;;;7.75;3.10;;;;;;;14.21;43.48;145746.83;1701960;84;21027;-56
2022/05/12 03:31:25;;;;;;;8.25;2.80;;;;;;;14.25;43.46;145756.91;1729975;82;21575;-56
2022/05/12 03:33:52;;;;;;;5.17;2.50;;;;;;;14.30;43.35;145769.48;1701924;83;21047;-56
2022/05/12 03:36:19;;;;;;;7.85;2.83;;;;;;;14.35;43.23;145782.06;1729927;82;21500;-56
2022/05/12 03:38:46;;;;;;;9.45;3.08;;;;;;;14.41;43.10;145797.14;1701859;84;21121;-55
2022/05/12 03:41:12;;;;;;;7.85;2.58;;;;;;;14.47;43.08;145812.22;1756735;80;21063;-56
2022/05/12 03:46:24;;;;;;;6.50;2.50;;;;;;;14.58;42.91;145837.44;1757933;81;21050;-56
2022/05/12 03:48:51;;;;;;;6.55;3.20;;;;;;;14.64;42.77;145852.56;1757914;80;21039;-57
2022/05/12 03:51:18;;;;;;;9.15;2.77;;;;;;;14.72;42.69;145872.69;1757935;80;21031;-56
2022/05/12 03:53:44;;;;;;;9.45;2.72;;;;;;;14.81;42.47;145894.05;1758044;80;21524;-56
2022/05/12 03:56:11;;;;;;;6.53;3.00;;;;;;;14.89;42.38;145915.47;1757955;80;21066;-57
2022/05/12 03:58:38;;;;;;;9.73;3.25;;;;;;;14.96;42.16;145931.84;1757918;80;21067;-56
2022/05/12 04:01:05;;;;;;;5.35;2.85;;;;;;;15.02;42.00;145946.94;1757926;80;21343;-56
2022/05/12 04:03:33;;;;;;;12.20;4.65;;;;;;;15.08;41.96;145960.77;1757976;80;21034;-56
2022/05/12 04:06:01;;;;;;;6.28;2.77;;;;;;;15.13;41.94;145973.36;1757952;80;21074;-56
2022/05/12 04:08:29;;;;;;;8.13;2.67;;;;;;;15.17;41.81;145983.44;1757932;80;21012;-56
2022/05/12 04:10:57;;;;;;;9.60;2.40;;;;;;;15.23;41.85;145998.53;1757919;80;21012;-56
2022/05/12 04:13:24;;;;;;;6.33;2.92;;;;;;;15.30;41.64;146014.91;1758143;80;21043;-56
2022/05/12 04:15:53;;;;;;;7.65;2.65;;;;;;;15.39;41.71;146038.84;1757893;81;21087;-56
2022/05/12 04:18:19;;;;;;;6.12;2.60;;;;;;;15.43;41.65;146046.39;1758152;80;20963;-57
2022/05/12 04:20:48;;;;;;;6.30;2.52;;;;;;;15.45;41.70;146051.44;1757839;80;21575;-56
2022/05/12 04:23:14;;;;;;;9.93;2.98;;;;;;;15.46;41.70;146053.94;1758137;81;21032;-56
2022/05/12 04:25:41;;;;;;;9.55;2.75;;;;;;;15.49;41.82;146061.47;1757918;80;21082;-56
2022/05/12 04:28:07;;;;;;;9.25;2.92;;;;;;;15.55;41.80;146076.61;1758208;80;21043;-56
2022/05/12 04:30:36;;;;;;;8.38;2.92;;;;;;;15.63;41.75;146098.00;1758209;80;21011;-56
2022/05/12 04:35:47;;;;;;;7.95;3.12;;;;;;;15.88;41.56;146158.50;1757986;80;21547;-56
2022/05/12 04:38:14;;;;;;;8.43;2.87;;;;;;;16.04;41.43;146197.53;1757873;80;21050;-59
2022/05/12 04:40:41;;;;;;;8.40;3.55;;;;;;;16.15;41.20;146225.23;1759608;80;21047;-57
2022/05/12 04:43:08;;;;;;;5.42;2.77;;;;;;;16.24;41.19;146246.67;1760990;80;21496;-56
2022/05/12 04:45:36;;;;;;;14.00;3.05;;;;;;;16.36;41.15;146275.63;1742990;82;21020;-56
2022/05/12 04:48:04;;;;;;;6.67;3.02;;;;;;;16.46;40.95;146300.81;1742765;82;21033;-56
2022/05/12 04:50:35;;;;;;;7.42;2.70;;;;;;;16.59;40.63;146333.63;1742838;82;21529;-56
2022/05/12 04:53:03;;;;;;;6.55;3.02;;;;;;;16.73;40.39;146367.63;1742948;82;20993;-56
2022/05/12 04:55:33;;;;;;;10.85;2.70;;;;;;;16.86;39.98;146399.17;1742744;82;21131;-56
2022/05/12 04:58:00;;;;;;;6.37;2.47;;;;;;;16.97;39.62;146426.94;1742812;82;21589;-56
2022/05/12 05:00:35;;;;;;;5.30;2.80;;;;;;;17.07;39.24;146452.14;1742697;82;21037;-56
2022/05/12 05:03:03;;;;;;;12.80;2.80;;;;;;;17.18;38.99;146477.34;1743047;82;21516;-57
2022/05/12 05:05:29;;;;;;;9.50;2.90;;;;;;;17.31;38.79;146510.12;1742721;82;20989;-57
2022/05/12 05:07:57;;;;;;;7.30;2.62;;;;;;;17.57;39.10;146574.41;1742994;82;21017;-57
2022/05/12 05:10:24;;;;;;;6.87;2.75;;;;;;;17.57;39.10;146574.41;1742744;82;21024;-57
2022/05/12 05:12:52;;;;;;;5.97;2.50;;;;;;;17.78;38.19;146626.11;1742781;82;21072;-57
2022/05/12 05:15:21;;;;;;;6.35;2.62;;;;;;;18.14;38.05;146714.44;1742929;82;21041;-57
2022/05/12 05:17:48;;;;;;;7.85;2.92;;;;;;;18.14;38.05;146714.44;1742935;82;21518;-57
2022/05/12 05:20:21;;;;;;;7.90;2.67;;;;;;;18.34;37.60;146764.95;1742692;82;21025;-56
2022/05/12 05:22:48;;;;;;;7.67;2.52;;;;;;;18.50;37.33;146802.81;1743069;82;21560;-56
2022/05/12 05:25:16;;;;;;;5.92;2.58;;;;;;;18.95;36.47;146913.88;1742771;81;21110;-57
2022/05/12 05:27:45;;;;;;;6.50;2.95;;;;;;;18.95;36.47;146913.88;1742490;82;21052;-56
2022/05/12 05:30:16;;;;;;;8.20;2.72;;;;;;;19.61;35.84;147076.75;1742889;82;21012;-54
2022/05/12 05:32:44;;;;;;;6.62;2.75;;;;;;;20.94;33.61;147406.64;1742995;82;21001;-55
2022/05/12 05:35:16;;;;;;;7.87;2.60;;;;;;;22.76;31.39;147857.00;1742667;82;21017;-55
2022/05/12 05:37:42;;;;;;;9.75;2.70;;;;;;;23.75;29.69;148100.19;1742435;82;21028;-54
2022/05/12 05:40:13;;;;;;;7.05;2.90;;;;;;;23.90;28.97;148138.19;1741327;82;21503;-55
2022/05/12 05:42:40;;;;;;;9.15;3.30;;;;;;;23.90;28.68;148138.19;1737741;83;21008;-55
2022/05/12 05:45:12;;;;;;;7.90;2.80;;;;;;;23.93;28.73;148145.78;1737568;83;21009;-55
2022/05/12 05:47:39;;;;;;;7.62;2.67;;;;;;;24.09;28.29;148183.78;1737620;81;21029;-55
2022/05/12 05:50:08;;;;;;;7.50;3.17;;;;;;;24.23;28.16;148219.27;1737503;83;21498;-55
2022/05/12 05:55:21;;;;;;;5.85;2.90;;;;;;;24.90;27.38;148386.56;1737555;83;21494;-56
2022/05/12 05:57:48;;;;;;;8.95;2.62;;;;;;;25.65;26.49;148570.47;1737302;83;21174;-56
2022/05/12 06:00:17;;;;;;;6.80;2.70;;;;;;;26.81;25.51;148858.50;1737261;83;21557;-56
2022/05/12 06:02:44;;;;;;;7.45;2.95;;;;;;;28.24;23.93;149214.11;1737697;83;20965;-56
2022/05/12 06:05:12;;;;;;;8.53;2.65;;;;;;;29.56;22.51;149542.00;1737507;83;21082;-56
2022/05/12 06:07:40;;;;;;;10.30;2.75;;;;;;;30.69;21.64;149823.16;1737239;81;21061;-57
2022/05/12 06:10:08;;;;;;;4.40;2.50;;;;;;;31.65;20.48;150059.89;1737275;81;20990;-57
2022/05/12 06:12:35;;;;;;;7.08;2.40;;;;;;;32.20;20.10;150198.70;1737318;83;21031;-56
2022/05/12 06:15:04;;;;;;;4.72;1.90;;;;;;;33.11;19.34;150422.97;1737233;83;21455;-58
2022/05/12 06:17:31;;;;;;;9.55;2.62;;;;;;;33.93;18.58;150629.39;1737524;83;21021;-57
2022/05/12 06:19:58;;;;;;;4.60;2.10;;;;;;;34.60;17.93;150795.19;1728178;83;21016;-57
2022/05/12 06:22:25;;;;;;;5.37;2.22;;;;;;;35.16;17.78;150935.55;1702538;84;21500;-58
2022/05/12 06:24:51;;;;;;;8.05;2.17;;;;;;;35.00;17.40;150894.66;1736245;82;21017;-60
2022/05/12 06:27:19;;;;;;;5.15;2.72;;;;;;;33.98;18.33;150639.61;1727975;83;20999;-57
2022/05/12 06:29:47;;;;;;;6.50;2.45;;;;;;;33.14;19.00;150430.59;1738945;82;21552;-58
2022/05/12 06:32:15;;;;;;;9.43;2.65;;;;;;;33.54;18.84;150531.25;1757771;82;21107;-62
2022/05/12 06:34:42;;;;;;;8.18;2.60;;;;;;;34.42;18.35;150750.53;1736702;81;21064;-63
2022/05/12 06:37:10;;;;;;;9.38;2.98;;;;;;;35.11;17.87;150922.80;1710943;82;21116;-61
2022/05/12 06:39:38;;;;;;;8.03;2.72;;;;;;;35.78;17.58;151088.64;1757683;80;21039;-63
2022/05/12 06:42:06;;;;;;;5.83;2.35;;;;;;;36.34;17.21;151229.03;1727131;83;21014;-63
2022/05/12 06:44:35;;;;;;;8.48;2.22;;;;;;;36.56;16.98;151283.94;1745516;82;21068;-63
2022/05/12 06:47:03;;;;;;;8.25;2.70;;;;;;;36.10;17.25;151167.78;1756935;81;21058;-63
2022/05/12 06:49:29;;;;;;;5.87;2.20;;;;;;;35.59;17.90;151041.42;1732039;81;21066;-62
2022/05/12 06:51:56;;;;;;;7.53;2.15;;;;;;;35.68;17.87;151063.14;1748412;81;21029;-63
2022/05/12 06:54:23;;;;;;;5.03;2.00;;;;;;;35.55;17.87;151032.47;1736937;81;21009;-56
2022/05/12 06:56:49;;;;;;;5.42;2.45;;;;;;;35.61;17.94;151047.80;1746820;81;21070;-56
2022/05/12 06:59:16;;;;;;;5.17;2.25;;;;;;;36.01;17.82;151147.31;1760099;80;21134;-56
2022/05/12 07:01:42;;;;;;;6.50;2.50;;;;;;;36.20;17.77;151194.56;1763350;81;21015;-56
2022/05/12 07:04:09;;;;;;;10.10;3.22;;;;;;;36.41;17.51;151246.91;1763387;81;21062;-56
2022/05/12 07:06:35;;;;;;;6.80;2.50;;;;;;;36.68;17.74;151313.30;1763340;81;21038;-57
2022/05/12 07:09:03;;;;;;;8.00;2.42;;;;;;;36.83;17.71;151351.59;1761443;81;21556;-58
2022/05/12 07:11:31;;;;;;;7.50;2.12;;;;;;;37.25;17.24;151456.34;1761953;80;21040;-62
2022/05/12 07:13:57;;;;;;;6.17;2.72;;;;;;;37.21;17.35;151446.11;1756330;81;20960;-58
2022/05/12 07:16:24;;;;;;;11.20;2.20;;;;;;;37.30;17.11;151469.11;1756080;80;21615;-59
2022/05/12 07:18:51;;;;;;;6.35;2.30;;;;;;;37.65;16.99;151555.95;1757403;80;21087;-58
2022/05/12 07:26:51;;;;;;;7.03;2.17;;;;;;;38.08;16.74;151662.02;1756618;80;21575;-57
2022/05/12 07:29:22;;;;;;;6.47;2.42;;;;;;;38.56;16.45;151782.16;1769432;81;21520;-57
2022/05/12 07:31:49;;;;;;;8.10;2.27;;;;;;;39.23;16.12;151950.84;1760344;81;21018;-56
2022/05/12 07:34:17;;;;;;;7.58;2.67;;;;;;;39.72;15.81;152073.63;1753972;81;21089;-56
2022/05/12 07:36:48;;;;;;;8.05;1.92;;;;;;;40.49;15.21;152264.22;1767384;81;21054;-49
2022/05/12 07:39:17;;;;;;;5.92;2.52;;;;;;;40.65;15.08;152303.86;1755408;80;21090;-58
2022/05/12 07:41:44;;;;;;;7.65;2.30;;;;;;;40.54;15.09;152277.02;1753598;81;21444;-59
2022/05/12 07:44:14;;;;;;;4.40;2.20;;;;;;;39.86;15.52;152108.17;1746390;81;21101;-64
2022/05/12 07:46:41;;;;;;;;;;;;;;;39.34;15.87;151977.77;1750295;81;21540;-63
2022/05/12 07:49:08;;;;;;;3.98;1.90;;;;;;;38.95;16.25;151879.28;1756494;81;20158;-62
2022/05/12 07:51:35;;;;;;;6.12;2.55;;;;;;;38.67;16.58;151808.97;1747344;81;21117;-65
2022/05/12 07:54:02;;;;;;;5.72;2.30;;;;;;;38.74;16.72;151826.86;1743918;81;21095;-64
2022/05/12 07:56:30;;;;;;;5.35;2.27;;;;;;;39.12;16.44;151921.47;1761883;81;21042;-63
2022/05/12 07:58:59;;;;;;;7.45;2.22;;;;;;;39.12;16.41;151921.47;1751866;81;21027;-64
2022/05/12 08:01:27;;;;;;;7.08;2.47;;;;;;;38.91;16.63;151870.36;1756980;81;21084;-63
2022/05/12 08:03:54;;;;;;;7.62;2.98;;;;;;;39.08;16.54;151913.81;1757313;81;21090;-64
2022/05/12 08:06:22;;;;;;;5.83;2.47;;;;;;;39.04;16.55;151903.58;1755765;81;20991;-64
2022/05/12 08:08:51;;;;;;;5.97;2.55;;;;;;;38.84;16.75;151853.69;1759044;81;21067;-63
2022/05/12 08:11:19;;;;;;;5.05;2.15;;;;;;;38.79;16.86;151840.91;1761810;81;21037;-64
2022/05/12 08:13:47;;;;;;;5.47;2.35;;;;;;;39.20;16.79;151941.91;1753135;81;21607;-65
2022/05/12 08:16:18;;;;;;;6.35;2.45;;;;;;;39.24;16.58;151952.16;1763701;81;22298;-61
2022/05/12 08:18:46;;;;;;;;;;;;;;;38.99;16.70;151889.53;1771392;81;21202;-63
2022/05/12 08:21:15;;;;;;;6.92;2.33;;;;;;;38.55;16.93;151780.88;1754486;81;20099;-62
2022/05/12 08:23:42;;;;;;;6.58;2.22;;;;;;;38.20;17.12;151692.69;1751861;81;21509;-63
2022/05/12 08:26:10;;;;;;;6.53;2.52;;;;;;;38.21;17.29;151696.48;1746949;81;21549;-70
2022/05/12 08:28:40;;;;;;;8.03;2.55;;;;;;;38.47;17.27;151760.45;1758739;81;21031;-62
2022/05/12 08:31:08;;;;;;;9.68;3.00;;;;;;;38.69;17.21;151814.09;1750316;81;21062;-60
2022/05/12 08:33:35;;;;;;;5.53;2.83;;;;;;;38.29;17.36;151715.64;1752104;81;21611;-62
2022/05/12 08:36:03;;;;;;;11.10;3.33;;;;;;;37.97;17.63;151636.47;1756135;81;22202;-62
2022/05/12 08:38:31;;;;;;;4.60;2.70;;;;;;;37.88;17.82;151613.42;1727738;82;21482;-59
2022/05/12 08:41:16;;;;;;;6.67;2.60;;;;;;;37.68;17.93;151562.34;1702196;83;21177;-63
2022/05/12 08:43:57;;;;;;;6.70;2.30;;;;;;;37.49;18.22;151515.06;1685267;82;21555;-65
2022/05/12 08:46:35;;;;;;;5.62;2.60;;;;;;;37.10;18.58;151418.05;1756992;81;21387;-66
2022/05/12 08:49:15;;;;;;;5.83;2.40;;;;;;;36.51;18.93;151272.44;1736470;81;21503;-68
2022/05/12 08:51:47;;;;;;;9.95;2.80;;;;;;;35.22;20.31;150949.56;1729469;81;21023;-65
2022/05/12 08:54:18;;;;;;;5.00;2.60;;;;;;;34.06;21.16;150659.98;1714547;84;20972;-68
2022/05/12 08:56:46;;;;;;;8.00;2.72;;;;;;;33.32;22.05;150476.45;1757437;81;21011;-66
2022/05/12 08:59:13;;;;;;;7.05;2.47;;;;;;;33.22;22.26;150450.97;1741701;82;21082;-67
2022/05/12 09:01:55;;;;;;;8.15;2.90;;;;;;;33.46;22.34;150510.88;1752494;81;21086;-65
2022/05/12 09:04:36;;;;;;;8.03;2.33;;;;;;;33.84;22.30;150606.48;1748157;81;21463;-66
2022/05/12 09:07:29;;;;;;;7.37;3.30;;;;;;;34.03;22.02;150653.63;1725280;82;21555;-61
2022/05/12 09:10:19;;;;;;;11.35;2.83;;;;;;;34.01;21.89;150648.50;1738647;82;21003;-71
2022/05/12 09:12:54;;;;;;;7.73;3.17;;;;;;;33.51;22.45;150524.87;1726414;82;21486;-61
2022/05/12 09:15:28;;;;;;;7.50;4.42;;;;;;;32.61;23.24;150300.61;1735631;81;21113;-69
2022/05/12 09:18:06;;;;;;;8.95;3.30;;;;;;;32.12;23.86;150178.34;1730355;82;21043;-60
2022/05/12 09:20:36;;;;;;;6.90;3.42;;;;;;;31.91;24.23;150124.84;1717561;83;21601;-70
2022/05/12 09:23:05;;;;;;;12.65;3.40;;;;;;;31.72;24.57;150078.98;1726577;83;21603;-61
2022/05/12 09:25:42;;;;;;;9.38;3.25;;;;;;;31.51;24.85;150026.81;1726925;83;21045;-63
2022/05/12 09:28:33;;;;;;;9.23;3.67;;;;;;;31.26;25.20;149963.14;1726329;83;21143;-60
2022/05/12 09:31:15;;;;;;;9.60;3.47;;;;;;;30.83;25.58;149857.53;1727147;83;21064;-60
2022/05/12 09:33:50;;;;;;;9.93;3.62;;;;;;;30.42;26.08;149754.45;1726178;83;21618;-61
2022/05/12 09:36:25;;;;;;;8.83;3.87;;;;;;;29.98;26.68;149646.31;1727061;83;21138;-64
2022/05/12 09:38:55;;;;;;;11.12;4.30;;;;;;;29.69;27.49;149572.56;1726475;83;21597;-57
2022/05/12 09:41:26;;;;;;;9.50;3.50;;;;;;;29.39;27.54;149498.81;1726751;83;20998;-57
2022/05/12 09:43:54;;;;;;;7.62;3.60;;;;;;;29.05;27.67;149414.91;1724334;83;21057;-61
2022/05/12 09:46:32;;;;;;;8.30;4.17;;;;;;;28.86;28.03;149366.59;1727630;82;21060;-60
2022/05/12 09:49:18;;;;;;;9.05;3.90;;;;;;;28.68;28.55;149322.13;1725612;82;21853;-62
2022/05/12 09:51:46;;;;;;;9.60;3.58;;;;;;;28.44;28.95;149263.66;1724689;82;21056;-59
2022/05/12 09:54:29;;;;;;;5.80;3.40;;;;;;;28.30;29.21;149229.33;1726692;83;21037;-59
2022/05/12 09:57:20;;;;;;;9.08;4.03;;;;;;;28.23;29.03;149211.53;1725984;83;21025;-58
2022/05/12 09:59:55;;;;;;;10.48;4.25;;;;;;;28.03;29.26;149160.73;1736336;82;21542;-59
2022/05/12 10:08:21;;;;;;;12.05;3.92;;;;;;;27.83;29.69;149112.47;1722281;82;21045;-61
2022/05/12 10:10:53;;;;;;;9.35;4.10;;;;;;;27.90;29.84;149130.25;1721828;83;20981;-62
2022/05/12 10:13:28;;;;;;;10.45;4.08;;;;;;;28.02;29.94;149158.22;1725601;83;21024;-60
2022/05/12 10:15:56;;;;;;;7.08;3.50;;;;;;;28.11;29.95;149182.36;1728446;82;21002;-63
2022/05/12 10:18:51;;;;;;;9.13;3.50;;;;;;;28.26;29.39;149217.89;1728616;82;21574;-61
2022/05/12 10:21:24;;;;;;;11.20;4.42;;;;;;;28.27;29.03;149220.45;1725906;82;21214;-66
2022/05/12 10:24:11;;;;;;;16.30;4.17;;;;;;;28.12;29.13;149183.63;1723110;83;21049;-65
2022/05/12 10:26:50;;;;;;;9.90;4.10;;;;;;;28.06;29.21;149168.34;1725503;82;21585;-67
2022/05/12 10:29:44;;;;;;;8.70;3.80;;;;;;;28.08;29.37;149173.44;1726143;83;21034;-64
2022/05/12 10:32:42;;;;;;;8.13;3.92;;;;;;;28.21;29.23;149206.45;1722611;83;20982;-63
2022/05/12 10:35:23;;;;;;;9.50;4.22;;;;;;;28.24;29.47;149212.80;1741176;82;21047;-65
2022/05/12 10:38:27;;;;;;;6.97;3.77;;;;;;;28.31;29.33;149231.84;1730900;82;20974;-64
2022/05/12 10:41:12;;;;;;;9.63;3.95;;;;;;;28.41;29.20;149254.73;1725350;82;21009;-65
2022/05/12 10:43:53;;;;;;;10.23;4.33;;;;;;;28.52;28.94;149284.02;1728953;82;21594;-65
2022/05/12 10:46:46;;;;;;;13.85;3.83;;;;;;;28.52;28.91;149282.72;1724360;83;21037;-68
2022/05/12 10:49:23;;;;;;;11.05;3.92;;;;;;;28.46;28.84;149267.48;1729988;82;21175;-64
2022/05/12 10:52:21;;;;;;;9.40;4.08;;;;;;;28.45;29.05;149264.97;1728883;82;20989;-65
2022/05/12 10:55:30;;;;;;;9.90;4.40;;;;;;;28.54;28.85;149287.80;1726171;83;21492;-65
2022/05/12 10:58:19;;;;;;;9.53;3.60;;;;;;;28.59;29.25;149300.50;1698798;84;21299;-65
2022/05/12 11:01:04;;;;;;;10.28;4.20;;;;;;;28.64;29.12;149313.20;1694568;84;21608;-62
2022/05/12 11:03:54;;;;;;;11.80;3.92;;;;;;;28.63;28.81;149309.42;1724817;81;21007;-55
2022/05/12 11:06:25;;;;;;;10.45;3.83;;;;;;;28.62;29.00;149308.13;1736761;82;21068;-54
2022/05/12 11:08:56;;;;;;;7.65;3.87;;;;;;;28.74;29.05;149338.63;1691848;85;21141;-59
2022/05/12 11:11:35;;;;;;;11.08;3.98;;;;;;;28.82;28.93;149356.41;1736097;82;21592;-55
2022/05/12 11:14:10;;;;;;;15.93;4.55;;;;;;;28.76;28.85;149342.44;1739330;82;21055;-59
2022/05/12 11:17:14;;;;;;;9.18;3.70;;;;;;;28.72;29.05;149333.53;1727924;82;21036;-58
2022/05/12 11:19:47;;;;;;;8.83;3.98;;;;;;;28.81;28.60;149353.89;1718757;83;21029;-57
2022/05/12 11:22:34;;;;;;;15.60;4.33;;;;;;;28.89;28.63;149374.22;1731727;82;21001;-60
2022/05/12 11:25:17;;;;;;;11.45;4.00;;;;;;;28.98;28.46;149398.36;1725764;83;21099;-56
2022/05/12 11:29:41;;;;;;;7.67;3.52;;;;;;;29.02;28.66;149405.98;1725345;83;21087;-57
2022/05/12 11:30:37;;;;;;;11.73;3.60;;;;;;;29.12;28.33;149431.44;1722133;82;21112;-60
2022/05/12 11:33:22;;;;;;;8.68;3.47;;;;;;;29.15;28.25;149439.06;1727148;82;21547;-56
2022/05/12 11:35:53;;;;;;;9.00;3.77;;;;;;;29.20;27.99;149451.77;1727936;82;21562;-55
2022/05/12 11:38:43;;;;;;;10.40;3.87;;;;;;;29.24;27.87;149460.69;1703187;84;21129;-61
2022/05/12 11:41:34;;;;;;;11.65;3.60;;;;;;;29.26;27.97;149465.73;1725699;83;21029;-58
2022/05/12 11:44:24;;;;;;;19.55;4.25;;;;;;;29.24;27.97;149460.69;1722005;83;21017;-57
2022/05/12 11:47:12;;;;;;;9.03;3.42;;;;;;;29.13;27.63;149435.28;1725274;83;21072;-59
2022/05/12 11:49:56;;;;;;;10.55;3.42;;;;;;;29.10;27.54;149427.61;1723135;83;21092;-56
2022/05/12 11:52:53;;;;;;;12.98;3.95;;;;;;;29.17;27.65;149445.41;1727503;82;21087;-58
2022/05/12 11:55:25;;;;;;;10.78;4.37;;;;;;;29.28;27.79;149472.09;1732135;82;21088;-59
2022/05/12 11:58:04;;;;;;;12.70;4.20;;;;;;;29.26;27.90;149465.73;1734800;82;21581;-53
2022/05/12 12:00:43;;;;;;;7.15;3.50;;;;;;;29.15;27.86;149440.31;1726203;83;21054;-56
2022/05/12 12:03:24;;;;;;;10.38;3.50;;;;;;;29.11;27.96;149430.19;1726415;82;20926;-58